KRNC/RNC METAR and TAF weather

Enter ICAO airport designator
Station Type Date Time Source
KRNC METAR 2022/12/08 13:55 UTC NOAA

KRNC 081355Z AUTO 00000KT 2 1/2SM BR FEW004 BKN014 OVC049 15/15 A3016 RMK A01 P0001


Station Type Date Time Source
KRNC Decoded METAR 2022/12/08 13:55 UTC NOAA

Station name not available
Dec 08, 2022 - 08:55 AM EST / 2022.12.08 1355 UTC
Wind: Calm:0
Visibility: 2 1/2 mile(s):0
Sky conditions: overcast
Weather: mist
Precipitation last hour: 0.01 inches
Temperature: 59 F (15 C)
Dew Point: 59 F (15 C)
Relative Humidity: 100%
Pressure (altimeter): 30.16 in. Hg (1021 hPa)
ob: KRNC 081355Z AUTO 00000KT 2 1/2SM BR FEW004 BKN014 OVC049 15/15 A3016 RMK A01 P0001
cycle: 14

Station Type Date Time Source
KRNC TAF 2009/08/31 19:45 UTC NOAA

METAR KRNC 311945Z AUTO 35008KT 10SM CLR 25/12 A3011
RMK AO1 T02500116 $

Example: see airport list